Time;durP1;ratioP1;P1;durP2;ratioP2;P2;SDS_P1;SDS_P2;PMS_P1;PMS_P2;Temp;Humidity;BMP_temperature;BMP_pressure;BME280_temperature;BME280_humidity;BME280_pressure;Samples;Min_cycle;Max_cycle;Signal;HPM_P1;HPM_P2
2024/01/25 05:03:34;;;;;;;1.33;1.23;;;7.70;97.30;;;;;;4909953;29;20952;-88
2024/01/25 05:05:59;;;;;;;1.03;0.93;;;7.80;97.30;;;;;;4897719;29;20473;-88
2024/01/25 05:08:26;;;;;;;29.40;3.23;;;7.80;97.30;;;;;;4897488;29;20252;-88
2024/01/25 05:10:52;;;;;;;1.20;1.10;;;7.80;97.30;;;;;;4902014;29;20452;-86
2024/01/25 05:13:18;;;;;;;1.10;1.00;;;7.80;97.30;;;;;;4920120;29;20523;-89
2024/01/25 05:15:44;;;;;;;1.33;1.17;;;7.80;97.30;;;;;;4929395;29;20188;-89
2024/01/25 05:18:09;;;;;;;0.80;0.80;;;7.80;97.30;;;;;;4918376;29;20487;-88
2024/01/25 05:20:36;;;;;;;4.17;1.67;;;7.80;97.30;;;;;;4916977;29;20185;-88
2024/01/25 05:23:03;;;;;;;1.00;0.90;;;7.80;97.30;;;;;;4917208;29;20176;-88
2024/01/25 05:25:29;;;;;;;2.30;2.10;;;7.80;97.30;;;;;;4917564;29;20456;-89
2024/01/25 05:27:55;;;;;;;0.90;0.80;;;7.80;97.30;;;;;;4916002;29;20507;-89
2024/01/25 05:30:21;;;;;;;16.37;1.33;;;7.80;97.30;;;;;;4916266;29;20467;-89
2024/01/25 05:32:49;;;;;;;2.70;2.50;;;7.90;97.30;;;;;;4916711;29;20428;-88
2024/01/25 05:35:15;;;;;;;0.90;0.80;;;7.90;97.30;;;;;;4916210;29;20420;-89
2024/01/25 05:37:40;;;;;;;1.90;1.47;;;7.90;97.30;;;;;;4915764;29;20551;-87
2024/01/25 05:40:07;;;;;;;1.00;0.90;;;7.90;97.30;;;;;;4920259;29;20175;-87
2024/01/25 05:42:32;;;;;;;1.97;1.43;;;7.90;97.30;;;;;;4918734;29;20251;-87
2024/01/25 05:44:58;;;;;;;1.10;1.00;;;7.90;97.30;;;;;;4923739;29;20854;-87
2024/01/25 05:47:24;;;;;;;1.00;0.90;;;7.90;97.30;;;;;;4923917;29;20238;-88
2024/01/25 05:49:49;;;;;;;1.53;1.43;;;7.90;97.30;;;;;;4920229;29;20186;-87
2024/01/25 05:52:15;;;;;;;2.87;2.13;;;7.90;97.30;;;;;;4915979;29;20551;-88
2024/01/25 05:54:40;;;;;;;1.37;1.20;;;7.80;97.30;;;;;;4915891;29;20176;-89
2024/01/25 05:57:06;;;;;;;1.20;1.10;;;7.80;97.30;;;;;;4916074;29;20267;-89
2024/01/25 05:59:31;;;;;;;1.30;1.20;;;7.80;97.30;;;;;;4917562;29;20185;-89
2024/01/25 06:01:57;;;;;;;0.90;0.80;;;7.80;97.30;;;;;;4915865;29;20251;-89
2024/01/25 06:04:22;;;;;;;7.03;1.17;;;7.80;97.30;;;;;;4917606;29;20211;-87
2024/01/25 06:06:48;;;;;;;9.33;2.93;;;7.80;97.30;;;;;;4915327;29;20636;-89
2024/01/25 06:09:16;;;;;;;31.57;1.30;;;7.80;97.30;;;;;;4915563;29;20220;-87
2024/01/25 06:11:41;;;;;;;0.90;0.80;;;7.80;97.30;;;;;;4914854;29;20213;-87
2024/01/25 06:14:08;;;;;;;1.27;1.17;;;7.80;97.30;;;;;;4916774;29;20439;-88
2024/01/25 06:16:34;;;;;;;1.10;1.00;;;7.80;97.30;;;;;;4932099;29;20176;-89
2024/01/25 06:19:01;;;;;;;1.90;1.17;;;7.80;97.30;;;;;;4934017;29;20938;-89
2024/01/25 06:21:26;;;;;;;1.00;0.90;;;7.90;97.30;;;;;;4933409;29;20196;-88
2024/01/25 06:23:52;;;;;;;0.90;0.80;;;7.90;97.30;;;;;;4929970;29;20552;-88
2024/01/25 06:26:17;;;;;;;1.50;1.40;;;8.00;97.30;;;;;;4929988;29;20198;-88
2024/01/25 06:28:43;;;;;;;1.80;1.53;;;8.00;97.30;;;;;;4930320;29;20218;-86
2024/01/25 06:31:08;;;;;;;0.90;0.80;;;8.00;97.30;;;;;;4933632;29;20306;-88
2024/01/25 06:33:34;;;;;;;1.53;1.33;;;8.00;97.30;;;;;;4934313;29;20199;-88
2024/01/25 06:35:59;;;;;;;1.00;0.90;;;8.00;97.30;;;;;;4928031;29;20172;-88
2024/01/25 06:38:25;;;;;;;1.17;1.07;;;8.00;97.30;;;;;;4913856;29;20643;-89
2024/01/25 06:40:51;;;;;;;1.00;0.90;;;8.00;97.30;;;;;;4924083;29;20211;-89
2024/01/25 06:43:16;;;;;;;2.27;1.47;;;7.90;97.30;;;;;;4932466;29;20275;-88
2024/01/25 06:45:42;;;;;;;10.70;5.33;;;7.90;97.30;;;;;;4932638;29;20278;-88
2024/01/25 06:48:10;;;;;;;0.90;0.80;;;7.90;97.30;;;;;;4932550;29;20278;-88
2024/01/25 06:50:36;;;;;;;0.90;0.80;;;7.90;97.30;;;;;;4932871;29;20196;-89
2024/01/25 06:53:01;;;;;;;0.80;0.70;;;7.90;97.30;;;;;;4932494;29;20431;-88
2024/01/25 06:55:27;;;;;;;1.00;0.90;;;7.90;97.30;;;;;;4934315;29;20176;-88
2024/01/25 06:57:52;;;;;;;4.03;2.07;;;7.90;97.30;;;;;;4934925;29;20191;-88
2024/01/25 07:00:20;;;;;;;1.53;1.33;;;7.90;97.30;;;;;;4934456;29;20192;-88
2024/01/25 07:02:46;;;;;;;1.40;1.30;;;7.90;97.30;;;;;;4934054;29;20247;-88
2024/01/25 07:05:12;;;;;;;15.43;1.73;;;7.90;97.30;;;;;;4936774;29;20424;-90
2024/01/25 07:07:38;;;;;;;1.13;1.03;;;7.90;97.30;;;;;;4926626;29;20475;-89
2024/01/25 07:10:05;;;;;;;1.53;1.43;;;7.90;97.30;;;;;;4935715;29;20666;-88
2024/01/25 07:12:30;;;;;;;2.07;1.60;;;7.90;97.30;;;;;;4934589;29;20446;-89
2024/01/25 07:14:56;;;;;;;3.93;2.43;;;7.80;97.30;;;;;;4930976;29;20424;-88
2024/01/25 07:17:21;;;;;;;0.80;0.70;;;7.90;97.30;;;;;;4932570;29;20191;-88
2024/01/25 07:19:47;;;;;;;1.00;1.00;;;7.90;97.30;;;;;;4943525;29;20600;-89
2024/01/25 07:22:14;;;;;;;3.50;1.40;;;7.80;97.30;;;;;;4931608;29;20203;-89
2024/01/25 07:24:40;;;;;;;7.93;1.03;;;7.80;97.30;;;;;;4934477;29;20528;-90
2024/01/25 07:27:06;;;;;;;1.07;0.97;;;7.80;97.30;;;;;;4934459;29;20434;-89
2024/01/25 07:29:31;;;;;;;4.63;1.90;;;7.70;97.30;;;;;;4922764;29;20790;-89
2024/01/25 07:31:57;;;;;;;0.90;0.80;;;7.70;97.30;;;;;;4923797;29;20239;-90
2024/01/25 07:34:22;;;;;;;4.10;1.80;;;7.70;97.30;;;;;;4930124;29;20176;-88
2024/01/25 07:36:48;;;;;;;1.47;1.37;;;7.70;97.30;;;;;;4934392;29;20176;-88
2024/01/25 07:39:13;;;;;;;3.20;1.60;;;7.70;97.30;;;;;;4940289;29;20195;-89
2024/01/25 07:41:39;;;;;;;0.90;0.80;;;7.70;97.30;;;;;;4924720;29;20220;-89
2024/01/25 07:44:05;;;;;;;2.03;1.90;;;7.70;97.30;;;;;;4936327;29;20179;-89
2024/01/25 07:46:31;;;;;;;21.07;1.20;;;7.70;97.30;;;;;;4934893;29;20188;-89
2024/01/25 07:48:56;;;;;;;3.50;2.00;;;7.70;97.30;;;;;;4926949;29;20464;-90
2024/01/25 07:51:22;;;;;;;0.90;0.80;;;7.70;97.30;;;;;;4926436;29;20193;-88
2024/01/25 07:53:48;;;;;;;1.17;1.07;;;7.70;97.30;;;;;;4932716;29;20184;-89
2024/01/25 07:56:13;;;;;;;1.00;0.90;;;7.70;97.30;;;;;;4935466;29;20190;-90
2024/01/25 07:58:40;;;;;;;1.50;1.40;;;7.70;97.30;;;;;;4925753;29;20283;-89
2024/01/25 08:01:06;;;;;;;1.17;0.83;;;7.70;97.30;;;;;;4933424;29;20224;-88
2024/01/25 08:03:31;;;;;;;1.67;1.47;;;7.70;97.30;;;;;;4931778;29;20802;-89
2024/01/25 08:05:57;;;;;;;1.30;1.20;;;7.80;97.30;;;;;;4932770;29;20642;-89
2024/01/25 08:08:23;;;;;;;1.00;0.90;;;7.80;97.30;;;;;;4926236;29;20220;-88
2024/01/25 08:10:49;;;;;;;0.90;0.80;;;7.80;97.30;;;;;;4925463;29;20470;-88
2024/01/25 08:13:14;;;;;;;0.90;0.80;;;7.90;97.30;;;;;;4933036;29;20230;-88
2024/01/25 08:15:40;;;;;;;0.80;0.70;;;7.90;97.30;;;;;;4924618;29;20192;-89
2024/01/25 08:18:06;;;;;;;1.00;0.90;;;7.90;97.30;;;;;;4932371;29;20313;-88
2024/01/25 08:20:31;;;;;;;23.13;4.80;;;7.90;97.30;;;;;;4924184;29;20201;-88
2024/01/25 08:22:57;;;;;;;0.90;0.80;;;7.90;97.30;;;;;;4931956;29;20428;-88
2024/01/25 08:25:23;;;;;;;1.43;1.17;;;7.90;97.30;;;;;;4926262;29;20211;-88
2024/01/25 08:27:49;;;;;;;1.53;1.20;;;7.90;97.30;;;;;;4931364;29;20381;-89
2024/01/25 08:30:14;;;;;;;0.97;0.90;;;7.90;97.30;;;;;;4932365;29;20524;-88
2024/01/25 08:32:40;;;;;;;4.83;1.20;;;7.90;97.30;;;;;;4930872;29;20211;-88
2024/01/25 08:35:06;;;;;;;0.80;0.70;;;7.90;97.30;;;;;;4932465;29;20176;-88
2024/01/25 08:37:32;;;;;;;1.00;0.90;;;7.90;97.30;;;;;;4931448;29;20186;-88
2024/01/25 08:39:58;;;;;;;4.30;1.20;;;7.90;97.30;;;;;;4932399;29;20182;-88
2024/01/25 08:42:23;;;;;;;12.07;1.87;;;7.90;97.30;;;;;;4931841;29;20483;-89
2024/01/25 08:44:49;;;;;;;0.80;0.70;;;8.00;97.30;;;;;;4930408;29;20184;-88
2024/01/25 08:47:17;;;;;;;0.90;0.80;;;8.00;97.30;;;;;;4931402;29;20183;-88
2024/01/25 08:49:42;;;;;;;3.33;2.00;;;8.00;97.30;;;;;;4923885;29;20464;-88
2024/01/25 08:52:08;;;;;;;0.97;0.87;;;7.90;97.30;;;;;;4922927;29;20499;-89
2024/01/25 08:54:34;;;;;;;4.33;2.27;;;7.90;97.30;;;;;;4928539;29;20277;-86
2024/01/25 08:56:59;;;;;;;2.13;1.97;;;7.90;97.30;;;;;;4931213;29;20203;-88
2024/01/25 08:59:26;;;;;;;1.47;1.43;;;7.90;97.30;;;;;;4924978;29;20496;-88
2024/01/25 09:01:52;;;;;;;5.90;1.43;;;7.90;97.30;;;;;;4929601;29;20238;-88
2024/01/25 09:04:18;;;;;;;3.43;2.37;;;7.90;97.30;;;;;;4925585;29;20415;-89
2024/01/25 09:06:43;;;;;;;1.00;0.90;;;7.90;97.30;;;;;;4929673;29;20216;-88
2024/01/25 09:09:10;;;;;;;8.50;1.10;;;8.00;97.30;;;;;;4930586;29;20463;-87
2024/01/25 09:11:36;;;;;;;3.33;1.90;;;8.00;97.30;;;;;;4916519;29;20193;-88
2024/01/25 09:14:01;;;;;;;0.97;0.87;;;8.10;97.30;;;;;;4930806;29;20487;-88
2024/01/25 09:16:27;;;;;;;30.97;1.73;;;8.10;97.30;;;;;;4925814;29;20196;-88
2024/01/25 09:18:52;;;;;;;1.30;1.20;;;8.10;97.30;;;;;;4923217;29;20191;-88
2024/01/25 09:21:18;;;;;;;3.70;1.67;;;8.10;97.30;;;;;;4930410;29;20728;-89
2024/01/25 09:23:43;;;;;;;4.73;2.00;;;8.20;97.30;;;;;;4928124;29;20185;-88
2024/01/25 09:26:09;;;;;;;1.70;1.33;;;8.20;97.30;;;;;;4930056;29;20203;-87
2024/01/25 09:28:34;;;;;;;5.60;1.77;;;8.30;97.30;;;;;;4922451;29;20280;-88
2024/01/25 09:31:00;;;;;;;4.50;2.40;;;8.30;97.30;;;;;;4924172;29;20204;-89
2024/01/25 09:33:25;;;;;;;3.47;3.27;;;8.40;97.30;;;;;;4917573;29;20403;-89
2024/01/25 09:35:51;;;;;;;1.00;0.90;;;8.40;97.30;;;;;;4924005;29;20558;-88
2024/01/25 09:38:16;;;;;;;1.30;1.20;;;8.40;97.30;;;;;;4925210;29;20171;-89
2024/01/25 09:40:42;;;;;;;1.00;0.90;;;8.40;97.30;;;;;;4927522;29;20207;-88
2024/01/25 09:43:08;;;;;;;1.10;1.00;;;8.50;97.30;;;;;;4928955;29;20251;-88
2024/01/25 09:45:34;;;;;;;2.87;2.67;;;8.50;97.30;;;;;;4927542;29;20187;-88
2024/01/25 09:48:04;;;;;;;1.37;1.00;;;8.60;97.30;;;;;;4929219;29;20580;-89
2024/01/25 09:50:33;;;;;;;1.23;1.13;;;8.60;97.30;;;;;;4924975;29;20436;-88
2024/01/25 09:52:59;;;;;;;0.90;0.80;;;8.60;97.30;;;;;;4926611;29;20444;-88
2024/01/25 09:55:26;;;;;;;1.00;0.90;;;8.60;97.30;;;;;;4926113;29;20434;-88
2024/01/25 09:57:57;;;;;;;11.00;1.33;;;8.60;97.30;;;;;;4930080;29;20422;-89
2024/01/25 10:00:23;;;;;;;4.40;1.93;;;8.60;97.30;;;;;;4929273;29;20810;-88
2024/01/25 10:02:51;;;;;;;1.80;1.70;;;8.50;97.20;;;;;;4926930;29;20460;-88
2024/01/25 10:05:18;;;;;;;6.93;3.07;;;8.50;96.90;;;;;;4929139;29;20432;-88
2024/01/25 10:07:45;;;;;;;1.17;1.07;;;8.50;96.90;;;;;;4917235;29;21030;-89
2024/01/25 10:10:12;;;;;;;11.13;1.50;;;8.50;97.10;;;;;;4928909;29;20454;-88
2024/01/25 10:12:39;;;;;;;10.77;1.23;;;8.60;97.00;;;;;;4926178;29;20439;-88
2024/01/25 10:15:05;;;;;;;0.80;0.70;;;8.60;97.10;;;;;;4928291;29;20432;-88
2024/01/25 10:17:31;;;;;;;1.00;0.90;;;8.60;97.30;;;;;;4927774;29;20989;-87
2024/01/25 10:19:57;;;;;;;1.00;0.90;;;8.60;97.30;;;;;;4927666;29;20425;-90
2024/01/25 10:22:22;;;;;;;0.97;0.87;;;8.60;97.30;;;;;;4922759;29;20443;-87
2024/01/25 10:24:50;;;;;;;0.93;0.87;;;8.70;97.30;;;;;;4926077;29;20231;-88
2024/01/25 10:27:16;;;;;;;1.73;1.63;;;8.90;97.30;;;;;;4928781;29;20207;-88
2024/01/25 10:29:42;;;;;;;0.80;0.70;;;9.20;97.30;;;;;;4928038;29;20428;-88
2024/01/25 10:32:12;;;;;;;0.90;0.80;;;9.40;96.70;;;;;;4928428;29;21018;-88
2024/01/25 10:34:38;;;;;;;6.63;3.03;;;9.60;95.90;;;;;;4929081;29;20190;-89
2024/01/25 10:37:05;;;;;;;1.10;1.00;;;9.70;95.60;;;;;;4931490;29;20418;-89
2024/01/25 10:39:32;;;;;;;1.00;0.90;;;9.60;95.50;;;;;;4930224;29;20815;-89
2024/01/25 10:41:58;;;;;;;1.00;0.90;;;9.70;96.00;;;;;;4925517;29;20511;-89
2024/01/25 10:44:24;;;;;;;1.90;1.27;;;9.80;95.80;;;;;;4938206;29;20460;-88
2024/01/25 10:46:50;;;;;;;1.03;0.93;;;9.80;95.60;;;;;;4929230;29;20451;-87
2024/01/25 10:49:18;;;;;;;1.80;1.70;;;9.70;96.10;;;;;;4927794;29;20214;-88
2024/01/25 10:51:45;;;;;;;2.43;2.23;;;9.60;96.30;;;;;;4925076;29;20450;-88
2024/01/25 10:54:14;;;;;;;1.10;1.00;;;9.50;96.30;;;;;;4931518;29;20451;-88
2024/01/25 10:56:41;;;;;;;1.53;1.40;;;9.40;96.10;;;;;;4928822;29;20419;-88
2024/01/25 10:59:08;;;;;;;11.90;1.43;;;9.30;96.50;;;;;;4932440;29;20416;-88
2024/01/25 11:01:34;;;;;;;1.20;1.10;;;9.20;96.80;;;;;;4929086;29;20490;-88
2024/01/25 11:04:00;;;;;;;0.83;0.73;;;9.10;97.20;;;;;;4929580;29;20496;-88
2024/01/25 11:06:27;;;;;;;1.10;1.00;;;9.10;97.30;;;;;;4929810;29;20458;-88
2024/01/25 11:09:07;;;;;;;1.43;1.33;;;9.10;97.30;;;;;;4928628;29;20216;-88
2024/01/25 11:11:32;;;;;;;2.10;1.83;;;9.10;97.30;;;;;;4929777;29;20475;-88
2024/01/25 11:13:59;;;;;;;1.37;1.33;;;9.00;97.30;;;;;;4930203;29;20428;-90
2024/01/25 11:16:33;;;;;;;0.80;0.70;;;9.10;97.30;;;;;;4939475;29;20222;-88
2024/01/25 11:19:05;;;;;;;0.80;0.70;;;9.00;97.30;;;;;;4945699;29;20663;-89
2024/01/25 11:21:45;;;;;;;1.33;1.10;;;9.00;97.30;;;;;;4943665;29;20494;-88
2024/01/25 11:24:30;;;;;;;3.13;2.20;;;9.10;97.30;;;;;;4929163;29;20942;-88
2024/01/25 11:26:55;;;;;;;1.07;1.00;;;9.20;97.30;;;;;;4926864;29;20426;-89
2024/01/25 11:29:23;;;;;;;1.00;0.90;;;9.10;97.30;;;;;;4930620;29;20554;-89
2024/01/25 11:31:51;;;;;;;1.10;1.00;;;9.10;97.30;;;;;;4927452;29;20475;-90
2024/01/25 11:34:17;;;;;;;1.00;0.90;;;9.00;97.30;;;;;;4929476;29;20467;-88
2024/01/25 11:36:43;;;;;;;1.57;1.47;;;8.90;97.30;;;;;;4926668;29;20461;-89
2024/01/25 11:39:11;;;;;;;11.93;1.47;;;8.90;97.30;;;;;;4928980;29;21026;-87
2024/01/25 11:41:36;;;;;;;1.23;1.17;;;8.80;97.30;;;;;;4927632;29;20969;-88
2024/01/25 11:44:03;;;;;;;1.40;1.30;;;8.80;97.30;;;;;;4928185;29;20432;-89
2024/01/25 11:46:29;;;;;;;4.43;1.47;;;8.90;97.30;;;;;;4923783;29;20424;-88
2024/01/25 11:48:55;;;;;;;7.20;1.50;;;8.90;97.30;;;;;;4925290;29;20465;-88
2024/01/25 11:51:21;;;;;;;1.00;0.90;;;8.80;97.30;;;;;;4915958;29;20979;-87
2024/01/25 11:53:46;;;;;;;10.47;1.07;;;8.90;97.30;;;;;;4924951;29;20240;-88
2024/01/25 11:56:22;;;;;;;1.10;1.00;;;8.80;97.30;;;;;;4924294;29;20180;-89
2024/01/25 11:58:49;;;;;;;1.07;0.97;;;8.70;97.30;;;;;;4925420;29;20696;-87
2024/01/25 12:01:15;;;;;;;1.00;0.90;;;8.70;97.30;;;;;;4927838;29;20835;-88
2024/01/25 12:03:41;;;;;;;7.13;0.90;;;8.60;97.30;;;;;;4925668;29;20794;-87
2024/01/25 12:06:09;;;;;;;1.67;1.63;;;8.60;97.30;;;;;;4927299;29;21463;-88
2024/01/25 12:08:35;;;;;;;2.30;1.87;;;8.60;97.30;;;;;;4926480;29;20798;-88
2024/01/25 12:11:05;;;;;;;1.93;1.83;;;8.60;97.30;;;;;;4920384;29;20448;-89
2024/01/25 12:13:41;;;;;;;1.73;1.13;;;8.70;97.30;;;;;;4915975;29;20845;-88
2024/01/25 12:16:08;;;;;;;1.07;1.00;;;8.80;97.30;;;;;;4926932;29;20448;-88
2024/01/25 12:18:35;;;;;;;5.80;1.57;;;8.80;97.30;;;;;;4921513;29;20869;-88
2024/01/25 12:21:02;;;;;;;1.10;1.00;;;8.80;97.30;;;;;;4925835;29;20977;-88
2024/01/25 12:23:38;;;;;;;4.10;2.93;;;8.90;97.30;;;;;;4926810;29;20431;-88
2024/01/25 12:26:08;;;;;;;1.00;0.90;;;9.10;97.30;;;;;;4926169;29;20910;-88
2024/01/25 12:28:34;;;;;;;1.40;1.30;;;9.50;97.30;;;;;;4925616;29;21037;-89
2024/01/25 12:31:01;;;;;;;1.00;0.90;;;9.60;97.20;;;;;;4919709;29;20970;-89
2024/01/25 12:33:27;;;;;;;0.60;0.60;;;9.70;96.70;;;;;;4924769;29;20512;-88
2024/01/25 12:35:54;;;;;;;0.90;0.80;;;9.70;96.10;;;;;;4918738;29;20432;-88
2024/01/25 12:38:20;;;;;;;0.87;0.77;;;9.90;95.90;;;;;;4922460;29;20430;-88
2024/01/25 12:40:48;;;;;;;1.00;0.90;;;9.90;95.40;;;;;;4919081;29;20449;-88
2024/01/25 12:43:14;;;;;;;2.63;1.33;;;9.70;95.90;;;;;;4918779;29;20423;-88
2024/01/25 12:45:40;;;;;;;1.73;1.63;;;9.50;96.10;;;;;;4920238;29;20440;-88
2024/01/25 12:48:07;;;;;;;4.10;1.00;;;9.40;96.70;;;;;;4926604;29;20480;-88
2024/01/25 12:50:33;;;;;;;42.00;2.20;;;9.30;97.20;;;;;;4924996;29;20180;-88
2024/01/25 12:52:59;;;;;;;1.47;1.37;;;9.20;97.30;;;;;;4926085;29;20425;-88
2024/01/25 12:55:25;;;;;;;1.57;1.47;;;9.20;97.30;;;;;;4926630;29;20878;-89
2024/01/25 12:57:51;;;;;;;0.90;0.80;;;9.20;97.30;;;;;;4922717;29;20435;-88
2024/01/25 13:00:16;;;;;;;1.77;1.53;;;9.20;97.30;;;;;;4926217;29;20180;-88
2024/01/25 13:02:42;;;;;;;1.40;1.30;;;9.20;97.30;;;;;;4938106;29;20238;-88
2024/01/25 13:05:07;;;;;;;0.93;0.83;;;9.20;97.30;;;;;;4928136;29;20184;-88
2024/01/25 13:07:33;;;;;;;2.40;1.37;;;9.20;97.30;;;;;;4927824;29;20664;-89
2024/01/25 13:09:58;;;;;;;0.80;0.70;;;9.20;97.30;;;;;;4926585;29;20211;-88
2024/01/25 13:12:24;;;;;;;1.27;1.17;;;9.10;97.30;;;;;;4932232;29;20282;-87
2024/01/25 13:14:49;;;;;;;3.57;2.00;;;9.10;97.30;;;;;;4921424;29;20187;-88
2024/01/25 13:17:15;;;;;;;16.33;1.37;;;9.10;97.30;;;;;;4928034;29;20179;-87
2024/01/25 13:19:40;;;;;;;0.90;0.80;;;9.10;97.30;;;;;;4926032;29;20214;-88
2024/01/25 13:22:06;;;;;;;0.80;0.70;;;9.10;97.30;;;;;;4924578;29;20208;-88
2024/01/25 13:24:31;;;;;;;0.90;0.80;;;9.10;97.30;;;;;;4925145;29;20649;-88
2024/01/25 13:26:57;;;;;;;0.90;0.80;;;9.10;97.30;;;;;;4942652;29;20235;-88
2024/01/25 13:29:22;;;;;;;2.40;1.67;;;9.00;97.30;;;;;;4928500;29;20223;-88
2024/01/25 13:31:48;;;;;;;0.80;0.70;;;9.00;97.30;;;;;;4924764;29;20195;-88
2024/01/25 13:34:13;;;;;;;1.77;1.70;;;9.00;97.30;;;;;;4928042;29;20187;-88
2024/01/25 13:36:39;;;;;;;3.10;1.57;;;9.00;97.30;;;;;;4922571;29;20183;-87
2024/01/25 13:39:05;;;;;;;0.80;0.70;;;9.30;97.30;;;;;;4917805;29;20199;-88
2024/01/25 13:41:31;;;;;;;8.83;3.40;;;9.30;97.30;;;;;;4914867;29;20215;-88
2024/01/25 13:43:56;;;;;;;1.00;0.93;;;9.30;97.30;;;;;;4917578;29;20431;-88
2024/01/25 13:46:22;;;;;;;1.30;1.20;;;9.20;97.30;;;;;;4937966;29;20183;-88
2024/01/25 13:48:47;;;;;;;1.03;0.93;;;9.20;97.30;;;;;;4917899;29;20215;-88
2024/01/25 13:51:13;;;;;;;1.10;1.00;;;9.10;97.30;;;;;;4919673;29;20207;-88
2024/01/25 13:53:38;;;;;;;1.13;1.03;;;9.00;97.30;;;;;;4925331;29;20194;-87
2024/01/25 13:56:04;;;;;;;2.00;1.63;;;8.80;97.30;;;;;;4919320;29;20489;-86
2024/01/25 13:58:30;;;;;;;0.80;0.70;;;8.80;97.30;;;;;;4925197;29;20562;-87
2024/01/25 14:00:55;;;;;;;39.37;3.90;;;8.80;97.30;;;;;;4908981;29;20233;-88
2024/01/25 14:03:20;;;;;;;1.10;1.00;;;8.70;97.30;;;;;;4923181;29;20271;-88
2024/01/25 14:05:46;;;;;;;1.03;0.93;;;8.60;97.30;;;;;;4924355;29;20238;-86
2024/01/25 14:08:12;;;;;;;1.50;1.40;;;8.60;97.30;;;;;;4925072;29;20200;-87
2024/01/25 14:10:37;;;;;;;28.07;2.53;;;8.60;97.30;;;;;;4916298;29;20437;-87
2024/01/25 14:13:03;;;;;;;0.90;0.80;;;8.50;97.30;;;;;;4915737;29;20184;-87
2024/01/25 14:15:29;;;;;;;1.00;0.90;;;8.50;97.30;;;;;;4917680;29;20190;-88
2024/01/25 14:17:54;;;;;;;1.67;1.40;;;8.50;97.30;;;;;;4916496;29;20190;-87
2024/01/25 14:20:20;;;;;;;0.90;0.80;;;8.40;97.30;;;;;;4918696;29;20568;-86
2024/01/25 14:22:45;;;;;;;0.90;0.80;;;8.40;97.30;;;;;;4915805;29;20207;-88
2024/01/25 14:25:11;;;;;;;0.93;0.83;;;8.40;97.30;;;;;;4916675;29;20180;-87
2024/01/25 14:27:37;;;;;;;0.90;0.80;;;8.40;97.30;;;;;;4920525;29;20189;-87
2024/01/25 14:30:03;;;;;;;0.90;0.80;;;8.30;97.30;;;;;;4919035;29;20449;-87
2024/01/25 14:32:29;;;;;;;5.33;1.27;;;8.30;97.30;;;;;;4919014;29;20200;-87
2024/01/25 14:34:55;;;;;;;2.77;1.57;;;8.30;97.30;;;;;;4916090;29;20448;-86
2024/01/25 14:37:21;;;;;;;1.43;1.33;;;8.20;97.30;;;;;;4917827;29;20188;-87
2024/01/25 14:39:46;;;;;;;0.97;0.87;;;8.20;97.30;;;;;;4917000;29;20811;-87
2024/01/25 14:42:12;;;;;;;1.07;0.97;;;8.20;97.30;;;;;;4919513;29;20204;-87
2024/01/25 14:44:43;;;;;;;2.40;2.20;;;8.10;97.30;;;;;;4918359;29;20220;-87
2024/01/25 14:47:09;;;;;;;16.60;3.47;;;8.10;97.30;;;;;;4919248;29;21003;-87
2024/01/25 14:49:34;;;;;;;10.90;1.30;;;8.20;97.30;;;;;;4917759;29;20474;-87
2024/01/25 14:52:00;;;;;;;7.40;2.47;;;8.10;97.30;;;;;;4915696;29;20452;-86
2024/01/25 14:54:26;;;;;;;2.60;1.10;;;8.00;97.30;;;;;;4918357;29;20192;-87
2024/01/25 14:56:52;;;;;;;2.60;1.10;;;8.00;97.30;;;;;;4916278;29;20694;-86
2024/01/25 14:59:17;;;;;;;1.00;0.90;;;8.10;97.30;;;;;;4916213;29;20195;-87
2024/01/25 15:01:46;;;;;;;0.90;0.80;;;8.00;97.30;;;;;;4916358;29;20531;-87
2024/01/25 15:04:11;;;;;;;10.03;1.30;;;8.00;97.30;;;;;;4918370;29;20189;-88
2024/01/25 15:06:37;;;;;;;2.17;2.03;;;8.00;97.30;;;;;;4918291;29;20443;-86
2024/01/25 15:09:02;;;;;;;1.00;0.90;;;8.00;97.30;;;;;;4915685;29;20208;-86
2024/01/25 15:11:28;;;;;;;0.90;0.80;;;8.00;97.30;;;;;;4913871;29;20201;-87
2024/01/25 15:13:53;;;;;;;2.20;1.17;;;7.90;97.30;;;;;;4911957;29;20204;-87
2024/01/25 15:16:19;;;;;;;8.23;1.80;;;7.90;97.30;;;;;;4913482;29;20241;-86
2024/01/25 15:18:44;;;;;;;1.50;1.40;;;7.80;97.30;;;;;;4913993;29;20203;-87
2024/01/25 15:21:10;;;;;;;14.73;1.67;;;7.80;97.30;;;;;;4913747;29;20345;-87
2024/01/25 15:23:36;;;;;;;1.07;0.97;;;7.80;97.30;;;;;;4914540;29;20184;-86
2024/01/25 15:26:04;;;;;;;1.07;0.97;;;7.70;97.30;;;;;;4911145;29;20285;-88
2024/01/25 15:28:29;;;;;;;3.90;1.43;;;7.70;97.30;;;;;;4914058;29;20507;-87
2024/01/25 15:30:55;;;;;;;2.90;1.57;;;7.60;97.30;;;;;;4913405;29;20449;-86
2024/01/25 15:33:20;;;;;;;32.50;2.50;;;7.50;97.30;;;;;;4916475;29;20175;-86
2024/01/25 15:35:46;;;;;;;1.47;1.37;;;7.50;97.30;;;;;;4913954;29;20183;-86
2024/01/25 15:38:15;;;;;;;0.90;0.80;;;7.40;97.30;;;;;;4919639;29;20663;-87
2024/01/25 15:40:40;;;;;;;2.90;2.70;;;7.40;97.30;;;;;;4919965;29;20551;-88
2024/01/25 15:43:06;;;;;;;1.00;0.90;;;7.30;97.30;;;;;;4930299;29;20445;-87
2024/01/25 15:45:31;;;;;;;1.50;1.40;;;7.30;97.30;;;;;;4920305;29;20582;-87
2024/01/25 15:47:57;;;;;;;0.90;0.80;;;7.20;97.30;;;;;;4917027;29;20711;-88
2024/01/25 15:50:22;;;;;;;1.90;1.80;;;7.20;97.30;;;;;;4917389;29;20504;-87
2024/01/25 15:52:48;;;;;;;2.97;1.83;;;7.10;97.30;;;;;;4916785;29;20196;-89
2024/01/25 15:55:13;;;;;;;2.53;2.33;;;7.10;97.30;;;;;;4920866;29;20268;-88
2024/01/25 15:57:39;;;;;;;1.20;1.10;;;7.00;97.30;;;;;;4917133;29;20180;-89
2024/01/25 16:00:05;;;;;;;0.97;0.87;;;7.00;97.30;;;;;;4920749;29;20193;-88
2024/01/25 16:02:30;;;;;;;8.07;1.77;;;7.00;97.30;;;;;;4918110;29;20238;-88
2024/01/25 16:04:56;;;;;;;1.83;0.93;;;7.00;97.30;;;;;;4916265;29;20503;-89
2024/01/25 16:07:21;;;;;;;1.23;1.00;;;6.90;97.30;;;;;;4916498;29;20648;-87
2024/01/25 16:09:47;;;;;;;2.90;0.90;;;6.90;97.30;;;;;;4919869;29;20201;-89
2024/01/25 16:12:12;;;;;;;0.90;0.80;;;6.90;97.30;;;;;;4913966;29;20256;-88
2024/01/25 16:14:38;;;;;;;4.33;1.47;;;6.90;97.30;;;;;;4917830;29;20185;-88
2024/01/25 16:17:04;;;;;;;0.90;0.80;;;6.90;97.30;;;;;;4914860;29;20216;-87
2024/01/25 16:19:29;;;;;;;1.00;0.90;;;6.80;97.30;;;;;;4914577;29;20584;-87
2024/01/25 16:21:55;;;;;;;1.67;1.57;;;6.80;97.30;;;;;;4920202;29;20204;-86
2024/01/25 16:24:21;;;;;;;1.53;1.50;;;6.70;97.30;;;;;;4919300;29;20212;-87
2024/01/25 16:26:46;;;;;;;5.43;1.73;;;6.70;97.30;;;;;;4917652;29;20192;-85
2024/01/25 16:29:12;;;;;;;1.00;0.90;;;6.70;97.30;;;;;;4916484;29;20208;-86
2024/01/25 16:31:38;;;;;;;2.80;2.60;;;6.70;97.30;;;;;;4915367;29;20259;-86
2024/01/25 16:34:04;;;;;;;0.90;0.80;;;6.70;97.30;;;;;;4916886;29;20425;-86
2024/01/25 16:36:29;;;;;;;1.50;1.40;;;6.70;97.30;;;;;;4918491;29;20427;-86
2024/01/25 16:38:55;;;;;;;1.50;1.40;;;6.70;97.30;;;;;;4915367;29;20658;-87
2024/01/25 16:41:20;;;;;;;2.10;1.47;;;6.70;97.30;;;;;;4917652;29;20228;-87
2024/01/25 16:43:46;;;;;;;0.90;0.80;;;6.60;97.30;;;;;;4911085;29;20180;-87
2024/01/25 16:46:11;;;;;;;1.00;0.80;;;6.60;97.30;;;;;;4910096;29;20204;-87
2024/01/25 16:48:37;;;;;;;1.67;1.60;;;6.50;97.30;;;;;;4913519;29;20212;-86
2024/01/25 16:51:03;;;;;;;1.10;1.00;;;6.50;97.30;;;;;;4911667;29;20695;-86
2024/01/25 16:53:28;;;;;;;1.53;1.30;;;6.50;97.30;;;;;;4913416;29;20222;-86
2024/01/25 16:55:54;;;;;;;3.40;3.20;;;6.50;97.30;;;;;;4914470;29;20487;-87
2024/01/25 16:58:20;;;;;;;6.73;2.63;;;6.40;97.30;;;;;;4909516;29;20195;-86
2024/01/25 17:00:45;;;;;;;0.97;0.87;;;6.40;97.30;;;;;;4914530;29;20453;-87
2024/01/25 17:03:11;;;;;;;3.53;1.77;;;6.30;97.30;;;;;;4915510;29;20180;-86
2024/01/25 17:05:36;;;;;;;6.03;3.67;;;6.30;97.30;;;;;;4917658;29;20179;-87
2024/01/25 17:08:02;;;;;;;1.30;1.20;;;6.20;97.30;;;;;;4934948;29;20590;-87
2024/01/25 17:10:28;;;;;;;0.90;0.80;;;6.20;97.30;;;;;;4920965;29;20190;-86
2024/01/25 17:12:53;;;;;;;1.33;1.23;;;6.20;97.30;;;;;;4919519;29;20195;-85
2024/01/25 17:15:19;;;;;;;1.27;1.17;;;6.10;97.30;;;;;;4920178;29;20372;-86
2024/01/25 17:17:45;;;;;;;5.13;3.57;;;6.10;97.30;;;;;;4939291;29;20199;-87
2024/01/25 17:20:11;;;;;;;3.17;3.03;;;6.10;97.30;;;;;;4928582;29;20862;-87
2024/01/25 17:22:37;;;;;;;1.90;1.80;;;6.10;97.30;;;;;;4915610;29;20657;-87
2024/01/25 17:25:03;;;;;;;23.10;10.33;;;6.10;97.30;;;;;;4918934;29;20427;-86
2024/01/25 17:27:28;;;;;;;1.37;1.27;;;6.10;97.30;;;;;;4919502;29;20616;-85
2024/01/25 17:29:54;;;;;;;9.93;2.80;;;6.10;97.30;;;;;;4930308;29;20697;-85
2024/01/25 17:32:19;;;;;;;6.67;2.83;;;6.10;97.30;;;;;;4916016;29;20616;-86
2024/01/25 17:34:45;;;;;;;14.47;4.50;;;6.10;97.30;;;;;;4915030;29;20612;-85
2024/01/25 17:37:10;;;;;;;3.30;2.20;;;6.00;97.30;;;;;;4919038;29;20219;-86
2024/01/25 17:39:37;;;;;;;2.20;2.00;;;6.00;97.30;;;;;;4919062;29;20244;-86
2024/01/25 17:42:03;;;;;;;4.83;2.00;;;6.00;97.30;;;;;;4915743;29;20200;-87
2024/01/25 17:44:28;;;;;;;5.13;3.70;;;6.00;97.30;;;;;;4914568;29;20431;-86
2024/01/25 17:46:54;;;;;;;1.77;1.67;;;6.00;97.30;;;;;;4915749;29;20471;-87
2024/01/25 17:49:19;;;;;;;23.93;14.27;;;5.90;97.30;;;;;;4915377;29;20632;-87
2024/01/25 17:51:45;;;;;;;23.63;9.33;;;5.90;97.30;;;;;;4932620;29;20208;-87